createdAt,value
2022-12-20T00:01:11.925Z,3.00
2022-12-20T00:03:39.277Z,3.00
2022-12-20T00:06:06.393Z,3.00
2022-12-20T00:08:34.873Z,3.10
2022-12-20T00:11:03.189Z,3.00
2022-12-20T00:13:29.956Z,3.00
2022-12-20T00:16:10.738Z,3.10
2022-12-20T00:18:39.360Z,3.10
2022-12-20T00:21:07.934Z,3.10
2022-12-20T00:23:35.254Z,3.10
2022-12-20T00:26:07.653Z,3.10
2022-12-20T00:28:35.645Z,3.10
2022-12-20T00:31:03.620Z,3.10
2022-12-20T00:33:30.394Z,3.20
2022-12-20T00:35:57.986Z,3.20
2022-12-20T00:38:25.729Z,3.20
2022-12-20T00:41:08.653Z,3.20
2022-12-20T00:43:36.261Z,3.20
2022-12-20T00:46:03.129Z,3.30
2022-12-20T00:48:30.762Z,3.20
2022-12-20T00:51:02.434Z,3.30
2022-12-20T00:53:29.800Z,3.20
2022-12-20T00:55:57.360Z,3.30
2022-12-20T00:58:24.341Z,3.20
2022-12-20T01:00:56.155Z,3.30
2022-12-20T01:03:23.888Z,3.30
2022-12-20T01:05:56.155Z,3.30
2022-12-20T01:08:24.735Z,3.30
2022-12-20T01:11:01.540Z,3.30
2022-12-20T01:13:28.615Z,3.30
2022-12-20T01:15:56.161Z,3.30
2022-12-20T01:18:23.499Z,3.30
2022-12-20T01:20:50.386Z,3.30
2022-12-20T01:23:17.084Z,3.40
2022-12-20T01:25:43.848Z,3.30
2022-12-20T01:28:10.561Z,3.30
2022-12-20T01:30:40.810Z,3.30
2022-12-20T01:33:07.551Z,3.40
2022-12-20T01:35:34.363Z,3.40
2022-12-20T01:38:01.103Z,3.40
2022-12-20T01:40:27.889Z,3.40
2022-12-20T01:42:54.573Z,3.40
2022-12-20T01:45:28.941Z,3.50
2022-12-20T01:47:57.590Z,3.40
2022-12-20T01:50:25.143Z,3.40
2022-12-20T01:52:52.747Z,3.50
2022-12-20T01:55:26.122Z,3.50
2022-12-20T01:58:06.039Z,3.40
2022-12-20T02:00:32.885Z,3.40
2022-12-20T02:03:03.289Z,3.40
2022-12-20T02:05:33.824Z,3.50
2022-12-20T02:08:00.569Z,3.40
2022-12-20T02:10:41.270Z,3.50
2022-12-20T02:13:16.328Z,3.40
2022-12-20T02:15:55.294Z,3.50
2022-12-20T02:18:41.213Z,3.40
2022-12-20T02:21:16.848Z,3.40
2022-12-20T02:24:21.270Z,3.40
2022-12-20T02:27:11.277Z,3.40
2022-12-20T02:30:00.092Z,3.40
2022-12-20T02:32:33.323Z,3.50
2022-12-20T02:35:00.084Z,3.40
2022-12-20T02:37:26.879Z,3.50
2022-12-20T02:39:53.957Z,3.40
2022-12-20T02:42:24.661Z,3.40
2022-12-20T02:45:15.927Z,3.50
2022-12-20T02:47:50.202Z,3.50
2022-12-20T02:50:30.668Z,3.40
2022-12-20T02:52:59.164Z,3.50
2022-12-20T02:55:38.531Z,3.50
2022-12-20T02:58:18.076Z,3.50
2022-12-20T03:00:47.480Z,3.50
2022-12-20T03:03:23.586Z,3.50
2022-12-20T03:09:32.378Z,3.50
2022-12-20T03:11:59.943Z,3.60
2022-12-20T03:14:27.379Z,3.50
2022-12-20T03:16:54.339Z,3.50
2022-12-20T03:19:21.454Z,3.40
2022-12-20T03:21:48.230Z,3.50
2022-12-20T03:24:15.119Z,3.50
2022-12-20T03:26:42.225Z,3.50
2022-12-20T03:29:09.499Z,3.40
2022-12-20T03:31:36.478Z,3.40
2022-12-20T03:34:04.085Z,3.40
2022-12-20T03:36:30.941Z,3.40
2022-12-20T03:38:57.812Z,3.50
2022-12-20T03:41:25.936Z,3.50
2022-12-20T03:43:53.147Z,3.50
2022-12-20T03:46:20.054Z,3.50
2022-12-20T03:48:46.821Z,3.50
2022-12-20T03:51:13.533Z,3.50
2022-12-20T03:53:40.169Z,3.50
2022-12-20T03:56:07.047Z,3.50
2022-12-20T03:58:33.829Z,3.60
2022-12-20T04:01:00.526Z,3.60
2022-12-20T04:03:27.941Z,3.60
2022-12-20T04:05:54.653Z,3.60
2022-12-20T04:08:21.286Z,3.60
2022-12-20T04:11:06.689Z,3.60
2022-12-20T04:13:33.356Z,3.70
2022-12-20T04:16:01.140Z,3.70
2022-12-20T04:18:28.160Z,3.80
2022-12-20T04:20:55.443Z,3.80
2022-12-20T04:26:00.064Z,3.80
2022-12-20T04:28:27.060Z,3.80
2022-12-20T04:33:39.879Z,3.90
2022-12-20T04:36:07.487Z,3.90
2022-12-20T04:38:34.337Z,3.90
2022-12-20T04:41:01.031Z,3.90
2022-12-20T04:43:28.029Z,3.90
2022-12-20T04:45:56.311Z,3.90
2022-12-20T04:51:14.386Z,4.00
2022-12-20T04:53:50.022Z,4.00
2022-12-20T04:56:22.354Z,4.00
2022-12-20T04:58:51.004Z,4.00
2022-12-20T05:01:17.967Z,3.90
2022-12-20T05:03:44.863Z,3.90
2022-12-20T05:06:12.477Z,3.90
2022-12-20T05:08:39.305Z,4.00
2022-12-20T05:11:06.792Z,4.00
2022-12-20T05:13:34.504Z,4.00
2022-12-20T05:16:01.868Z,3.90
2022-12-20T05:18:29.036Z,3.90
2022-12-20T05:21:16.141Z,3.90
2022-12-20T05:24:01.872Z,4.00
2022-12-20T05:26:36.516Z,4.00
2022-12-20T05:29:04.018Z,4.00
2022-12-20T05:31:30.967Z,3.90
2022-12-20T05:33:57.855Z,3.80
2022-12-20T05:36:24.728Z,3.80
2022-12-20T05:38:51.373Z,3.80
2022-12-20T05:41:18.163Z,3.80
2022-12-20T05:43:44.834Z,3.80
2022-12-20T05:46:11.752Z,3.80
2022-12-20T05:48:38.485Z,3.80
2022-12-20T05:51:05.556Z,3.80
2022-12-20T05:53:32.290Z,3.80
2022-12-20T05:56:01.510Z,3.80
2022-12-20T05:58:28.777Z,3.80
2022-12-20T06:00:56.303Z,3.70
2022-12-20T06:03:23.455Z,3.70
2022-12-20T06:05:50.284Z,3.70
2022-12-20T06:08:17.071Z,3.60
2022-12-20T06:10:43.721Z,3.60
2022-12-20T06:13:10.794Z,3.70
2022-12-20T06:15:38.553Z,3.60
2022-12-20T06:18:06.182Z,3.70
2022-12-20T06:20:34.149Z,3.70
2022-12-20T06:23:01.866Z,3.70
2022-12-20T06:25:29.404Z,3.70
2022-12-20T06:27:56.162Z,3.80
2022-12-20T06:30:25.425Z,3.70
2022-12-20T06:32:56.959Z,3.80
2022-12-20T06:35:24.493Z,3.90
2022-12-20T06:37:51.340Z,4.00
2022-12-20T06:40:18.083Z,4.10
2022-12-20T06:42:44.858Z,4.10
2022-12-20T06:45:11.843Z,4.10
2022-12-20T06:47:39.145Z,4.20
2022-12-20T06:50:07.010Z,4.30
2022-12-20T06:52:33.760Z,4.30
2022-12-20T06:55:00.437Z,4.40
2022-12-20T06:57:27.279Z,4.40
2022-12-20T06:59:53.990Z,4.40
2022-12-20T07:02:20.763Z,4.50
2022-12-20T07:04:47.524Z,4.60
2022-12-20T07:07:14.239Z,4.60
2022-12-20T07:09:42.736Z,4.70
2022-12-20T07:12:09.941Z,4.70
2022-12-20T07:14:36.911Z,4.80
2022-12-20T07:17:04.835Z,4.70
2022-12-20T07:19:31.656Z,4.80
2022-12-20T07:21:59.335Z,4.80
2022-12-20T07:24:26.228Z,4.80
2022-12-20T07:26:52.969Z,4.80
2022-12-20T07:29:19.687Z,4.80
2022-12-20T07:31:46.661Z,4.80
2022-12-20T07:34:13.644Z,4.80
2022-12-20T07:36:40.332Z,4.80
2022-12-20T07:39:07.172Z,4.90
2022-12-20T07:41:33.889Z,4.90
2022-12-20T07:44:00.681Z,4.80
2022-12-20T07:46:28.398Z,4.80
2022-12-20T07:48:55.615Z,4.80
2022-12-20T07:51:27.364Z,4.80
2022-12-20T07:54:03.871Z,4.90
2022-12-20T07:56:39.011Z,4.90
2022-12-20T07:59:09.225Z,4.90
2022-12-20T08:01:36.239Z,4.90
2022-12-20T08:04:09.640Z,4.90
2022-12-20T08:06:39.140Z,5.00
2022-12-20T08:09:06.867Z,5.00
2022-12-20T08:11:36.894Z,5.00
2022-12-20T08:14:06.723Z,5.00
2022-12-20T08:16:33.596Z,5.00
2022-12-20T08:19:00.568Z,5.10
2022-12-20T08:21:27.285Z,5.10
2022-12-20T08:23:53.920Z,5.10
2022-12-20T08:26:20.559Z,5.10
2022-12-20T08:28:47.316Z,5.10
2022-12-20T08:31:14.339Z,5.10
2022-12-20T08:33:41.633Z,5.10
2022-12-20T08:36:11.929Z,5.20
2022-12-20T08:38:39.104Z,5.20
2022-12-20T08:41:15.903Z,5.20
2022-12-20T08:43:43.545Z,5.30
2022-12-20T08:46:12.271Z,5.30
2022-12-20T08:48:39.122Z,5.30
2022-12-20T08:51:08.684Z,5.40
2022-12-20T08:53:36.752Z,5.40
2022-12-20T08:56:11.907Z,5.40
2022-12-20T08:58:39.526Z,5.40
2022-12-20T09:01:09.102Z,5.50
2022-12-20T09:03:36.622Z,5.50
2022-12-20T09:06:08.851Z,5.50
2022-12-20T09:08:36.693Z,5.50
2022-12-20T09:11:09.139Z,5.50
2022-12-20T09:13:41.639Z,5.50
2022-12-20T09:16:13.455Z,5.50
2022-12-20T09:18:40.272Z,5.50
2022-12-20T09:21:08.330Z,5.50
2022-12-20T09:23:36.223Z,5.50
2022-12-20T09:26:05.012Z,5.50
2022-12-20T09:28:33.094Z,5.50
2022-12-20T09:31:04.004Z,5.60
2022-12-20T09:33:32.887Z,5.60
2022-12-20T09:36:00.566Z,5.70
2022-12-20T09:38:28.839Z,5.70
2022-12-20T09:40:59.287Z,5.70
2022-12-20T09:43:26.966Z,5.70
2022-12-20T09:45:59.721Z,5.80
2022-12-20T09:48:31.646Z,5.80
2022-12-20T09:51:10.527Z,5.80
2022-12-20T09:54:06.870Z,5.80
2022-12-20T09:56:37.776Z,5.80
2022-12-20T09:59:12.874Z,5.80
2022-12-20T10:01:45.064Z,5.80
2022-12-20T10:04:31.227Z,5.90
2022-12-20T10:07:33.390Z,6.00
2022-12-20T10:10:08.913Z,6.00
2022-12-20T10:12:41.436Z,6.00
2022-12-20T10:15:22.181Z,6.00
2022-12-20T10:18:21.021Z,6.00
2022-12-20T10:21:28.086Z,6.10
2022-12-20T10:24:08.666Z,6.10
2022-12-20T10:26:35.632Z,6.20
2022-12-20T10:29:02.572Z,6.20
2022-12-20T10:31:29.412Z,6.30
2022-12-20T10:33:56.214Z,6.30
2022-12-20T10:36:29.256Z,6.40
2022-12-20T10:39:01.336Z,6.50
2022-12-20T10:41:34.194Z,6.60
2022-12-20T10:44:04.644Z,6.60
2022-12-20T10:46:44.436Z,6.60
2022-12-20T10:49:34.006Z,6.60
2022-12-20T10:52:12.908Z,6.60
2022-12-20T10:54:44.844Z,6.60
2022-12-20T10:57:20.915Z,6.60
2022-12-20T10:59:57.973Z,6.60
2022-12-20T11:02:33.246Z,6.70
2022-12-20T11:05:09.969Z,6.70
2022-12-20T11:08:33.581Z,6.80
2022-12-20T11:10:41.740Z,6.90
2022-12-20T11:13:20.409Z,6.90
2022-12-20T11:15:55.397Z,7.00
2022-12-20T11:18:31.444Z,7.20
2022-12-20T11:21:28.570Z,7.30
2022-12-20T11:24:13.526Z,7.40
2022-12-20T11:26:58.322Z,7.40
2022-12-20T11:29:56.882Z,7.50
2022-12-20T11:33:00.702Z,7.50
2022-12-20T11:35:49.080Z,7.60
2022-12-20T11:38:21.750Z,7.40
2022-12-20T11:41:07.139Z,7.30
2022-12-20T11:44:25.720Z,7.40
2022-12-20T11:47:10.966Z,7.50
2022-12-20T11:50:33.591Z,7.50
2022-12-20T11:53:09.217Z,7.50
2022-12-20T11:55:41.702Z,7.40
2022-12-20T11:58:19.911Z,7.40
2022-12-20T12:00:56.141Z,7.60
2022-12-20T12:03:37.124Z,7.80
2022-12-20T12:06:21.914Z,7.90
2022-12-20T12:08:57.099Z,8.00
2022-12-20T12:12:05.047Z,7.90
2022-12-20T12:14:30.919Z,7.70
2022-12-20T12:17:05.258Z,7.50
2022-12-20T12:19:34.789Z,7.40
2022-12-20T12:22:06.000Z,7.40
2022-12-20T12:24:46.740Z,7.40
2022-12-20T12:27:26.733Z,7.60
2022-12-20T12:29:54.782Z,7.70
2022-12-20T12:32:38.353Z,7.90
2022-12-20T12:35:37.758Z,7.90
2022-12-20T12:38:18.453Z,7.80
2022-12-20T12:41:22.467Z,7.60
2022-12-20T12:44:20.280Z,7.40
2022-12-20T12:46:55.071Z,7.40
2022-12-20T12:49:23.919Z,7.40
2022-12-20T12:51:54.027Z,7.30
2022-12-20T12:54:30.366Z,7.20
2022-12-20T12:57:03.298Z,7.10
2022-12-20T12:59:32.809Z,7.10
2022-12-20T13:02:03.701Z,7.10
2022-12-20T13:04:53.548Z,7.10
2022-12-20T13:07:40.396Z,7.10
2022-12-20T13:10:10.185Z,7.10
2022-12-20T13:12:36.957Z,7.00
2022-12-20T13:15:22.508Z,7.00
2022-12-20T13:18:17.499Z,7.00
2022-12-20T13:21:04.108Z,6.90
2022-12-20T13:23:30.776Z,7.10
2022-12-20T13:25:57.479Z,7.20
2022-12-20T13:28:24.166Z,7.40
2022-12-20T13:30:54.153Z,7.50
2022-12-20T13:33:49.862Z,7.40
2022-12-20T13:36:16.610Z,7.30
2022-12-20T13:38:46.842Z,7.20
2022-12-20T13:41:46.065Z,7.10
2022-12-20T13:44:15.883Z,7.00
2022-12-20T13:46:47.400Z,6.90
2022-12-20T13:49:37.704Z,6.80
2022-12-20T13:52:27.898Z,6.70
2022-12-20T13:54:58.953Z,6.70
2022-12-20T13:57:40.755Z,6.60
2022-12-20T14:00:17.115Z,6.60
2022-12-20T14:02:44.994Z,6.50
2022-12-20T14:05:19.759Z,6.40
2022-12-20T14:07:51.959Z,6.40
2022-12-20T14:10:24.731Z,6.40
2022-12-20T14:12:53.786Z,6.30
2022-12-20T14:15:33.336Z,6.30
2022-12-20T14:18:22.055Z,6.30
2022-12-20T14:20:53.324Z,6.20
2022-12-20T14:23:26.086Z,6.20
2022-12-20T14:26:00.080Z,6.20
2022-12-20T14:28:37.709Z,6.20
2022-12-20T14:31:06.308Z,6.20
2022-12-20T14:33:40.980Z,6.10
2022-12-20T14:36:16.871Z,6.10
2022-12-20T14:38:45.550Z,6.10
2022-12-20T14:41:37.627Z,6.10
2022-12-20T14:44:07.808Z,6.10
2022-12-20T14:46:35.882Z,6.00
2022-12-20T14:49:33.111Z,5.90
2022-12-20T14:52:12.016Z,5.90
2022-12-20T14:55:13.204Z,5.90
2022-12-20T14:57:52.032Z,5.90
2022-12-20T15:00:18.807Z,5.90
2022-12-20T15:03:01.457Z,5.90
2022-12-20T15:05:35.142Z,5.80
2022-12-20T15:08:27.883Z,5.80
2022-12-20T15:11:22.865Z,5.80
2022-12-20T15:13:54.488Z,5.80
2022-12-20T15:16:24.384Z,5.80
2022-12-20T15:18:56.146Z,5.80
2022-12-20T15:21:38.341Z,5.80
2022-12-20T15:24:10.583Z,5.80
2022-12-20T15:26:37.633Z,5.80
2022-12-20T15:29:05.140Z,5.80
2022-12-20T15:31:34.833Z,5.70
2022-12-20T15:34:06.835Z,5.70
2022-12-20T15:36:33.941Z,5.70
2022-12-20T15:39:12.624Z,5.70
2022-12-20T15:41:46.272Z,5.70
2022-12-20T15:44:20.450Z,5.70
2022-12-20T15:46:47.782Z,5.70
2022-12-20T15:49:21.207Z,5.60
2022-12-20T15:51:49.513Z,5.70
2022-12-20T15:54:22.722Z,5.60
2022-12-20T15:56:49.527Z,5.60
2022-12-20T15:59:48.914Z,5.60
2022-12-20T16:02:03.237Z,5.70
2022-12-20T16:04:30.086Z,5.60
2022-12-20T16:06:56.826Z,5.60
2022-12-20T16:09:25.849Z,5.60
2022-12-20T16:11:52.951Z,5.50
2022-12-20T16:14:21.510Z,5.50
2022-12-20T16:16:50.022Z,5.60
2022-12-20T16:19:17.323Z,5.60
2022-12-20T16:21:45.954Z,5.60
2022-12-20T16:24:14.725Z,5.60
2022-12-20T16:26:42.169Z,5.60
2022-12-20T16:29:08.900Z,5.50
2022-12-20T16:31:40.217Z,5.60
2022-12-20T16:34:12.903Z,5.50
2022-12-20T16:36:39.843Z,5.60
2022-12-20T16:39:06.746Z,5.50
2022-12-20T16:41:33.910Z,5.60
2022-12-20T16:44:02.193Z,5.50
2022-12-20T16:46:30.901Z,5.50
2022-12-20T16:48:59.245Z,5.50
2022-12-20T16:51:25.921Z,5.50
2022-12-20T16:56:44.620Z,5.50
2022-12-20T16:59:22.151Z,5.50
2022-12-20T17:01:55.535Z,5.50
2022-12-20T17:04:24.014Z,5.50
2022-12-20T17:06:50.936Z,5.50
2022-12-20T17:12:04.427Z,5.50
2022-12-20T17:14:31.156Z,5.50
2022-12-20T17:16:57.916Z,5.50
2022-12-20T17:19:24.604Z,5.40
2022-12-20T17:24:35.694Z,5.30
2022-12-20T17:27:02.582Z,5.20
2022-12-20T17:29:29.299Z,5.20
2022-12-20T17:31:56.203Z,5.20
2022-12-20T17:34:28.102Z,5.10
2022-12-20T17:36:57.271Z,5.20
2022-12-20T17:39:25.507Z,5.10
2022-12-20T17:41:54.097Z,5.20
2022-12-20T17:44:23.799Z,5.20
2022-12-20T17:46:50.620Z,5.20
2022-12-20T17:49:17.714Z,5.20
2022-12-20T17:51:45.044Z,5.10
2022-12-20T17:54:19.136Z,5.10
2022-12-20T17:56:46.549Z,5.10
2022-12-20T17:59:14.025Z,5.10
2022-12-20T18:01:41.463Z,5.10
2022-12-20T18:04:10.624Z,5.10
2022-12-20T18:06:39.207Z,5.10
2022-12-20T18:09:08.173Z,5.10
2022-12-20T18:11:35.119Z,5.10
2022-12-20T18:14:03.499Z,5.10
2022-12-20T18:16:34.978Z,5.10
2022-12-20T18:19:02.550Z,5.10
2022-12-20T18:21:29.238Z,5.10
2022-12-20T18:23:56.302Z,5.10
2022-12-20T18:26:25.948Z,5.20
2022-12-20T18:28:58.172Z,5.20
2022-12-20T18:31:26.869Z,5.10
2022-12-20T18:33:58.064Z,5.20
2022-12-20T18:36:30.192Z,5.20
2022-12-20T18:38:58.847Z,5.20
2022-12-20T18:41:28.573Z,5.20
2022-12-20T18:44:00.880Z,5.20
2022-12-20T18:46:28.642Z,5.30
2022-12-20T18:48:57.075Z,5.30
2022-12-20T18:51:26.727Z,5.30
2022-12-20T18:53:56.275Z,5.30
2022-12-20T18:56:29.297Z,5.30
2022-12-20T18:58:56.915Z,5.20
2022-12-20T19:01:27.342Z,5.30
2022-12-20T19:03:54.629Z,5.30
2022-12-20T19:06:22.162Z,5.30
2022-12-20T19:08:49.485Z,5.30
2022-12-20T19:11:19.313Z,5.30
2022-12-20T19:13:46.381Z,5.30
2022-12-20T19:16:22.654Z,5.30
2022-12-20T19:18:49.723Z,5.30
2022-12-20T19:21:17.527Z,5.30
2022-12-20T19:23:46.918Z,5.30
2022-12-20T19:26:15.298Z,5.40
2022-12-20T19:28:43.273Z,5.30
2022-12-20T19:31:21.511Z,5.40
2022-12-20T19:33:50.034Z,5.40
2022-12-20T19:36:19.255Z,5.40
2022-12-20T19:38:47.744Z,5.40
2022-12-20T19:41:14.807Z,5.40
2022-12-20T19:43:42.091Z,5.40
2022-12-20T19:46:09.683Z,5.40
2022-12-20T19:48:37.275Z,5.40
2022-12-20T19:51:10.135Z,5.40
2022-12-20T19:53:37.567Z,5.40
2022-12-20T19:56:05.111Z,5.40
2022-12-20T19:58:31.775Z,5.40
2022-12-20T20:00:58.460Z,5.40
2022-12-20T20:03:25.223Z,5.40
2022-12-20T20:05:52.726Z,5.40
2022-12-20T20:08:19.437Z,5.50
2022-12-20T20:10:48.605Z,5.40
2022-12-20T20:13:15.362Z,5.40
2022-12-20T20:15:42.441Z,5.40
2022-12-20T20:18:09.143Z,5.40
2022-12-20T20:20:40.631Z,5.30
2022-12-20T20:23:07.381Z,5.20
2022-12-20T20:25:35.438Z,5.20
2022-12-20T20:28:03.191Z,5.20
2022-12-20T20:30:30.011Z,5.20
2022-12-20T20:32:56.792Z,5.20
2022-12-20T20:35:23.484Z,5.10
2022-12-20T20:37:50.415Z,5.20
2022-12-20T20:40:17.140Z,5.20
2022-12-20T20:42:43.804Z,5.20
2022-12-20T20:45:11.049Z,5.20
2022-12-20T20:47:37.728Z,5.10
2022-12-20T20:50:04.903Z,5.10
2022-12-20T20:52:31.558Z,5.10
2022-12-20T20:54:58.673Z,5.10
2022-12-20T20:57:25.386Z,5.10
2022-12-20T20:59:52.096Z,5.00
2022-12-20T21:02:21.054Z,5.00
2022-12-20T21:05:14.459Z,5.00
2022-12-20T21:07:36.247Z,5.00
2022-12-20T21:10:04.321Z,5.00
2022-12-20T21:12:31.133Z,5.00
2022-12-20T21:15:22.508Z,4.90
2022-12-20T21:17:45.553Z,4.90
2022-12-20T21:20:13.089Z,4.90
2022-12-20T21:22:39.791Z,5.00
2022-12-20T21:25:07.095Z,4.90
2022-12-20T21:27:33.877Z,4.90
2022-12-20T21:30:00.575Z,4.90
2022-12-20T21:32:27.686Z,4.90
2022-12-20T21:34:54.470Z,4.90
2022-12-20T21:37:22.038Z,4.90
2022-12-20T21:39:48.783Z,5.00
2022-12-20T21:42:15.587Z,5.00
2022-12-20T21:44:42.371Z,5.00
2022-12-20T21:47:09.153Z,4.90
2022-12-20T21:49:35.957Z,5.00
2022-12-20T21:52:02.749Z,5.00
2022-12-20T21:54:29.404Z,5.00
2022-12-20T21:56:56.138Z,5.00
2022-12-20T21:59:23.126Z,5.00
2022-12-20T22:01:50.127Z,5.00
2022-12-20T22:04:18.832Z,5.00
2022-12-20T22:06:45.852Z,5.00
2022-12-20T22:09:12.606Z,5.00
2022-12-20T22:11:40.129Z,5.00
2022-12-20T22:14:07.273Z,5.00
2022-12-20T22:16:34.993Z,5.00
2022-12-20T22:19:02.466Z,5.00
2022-12-20T22:21:31.789Z,4.90
2022-12-20T22:24:00.024Z,4.90
2022-12-20T22:26:29.881Z,4.90
2022-12-20T22:28:59.210Z,4.90
2022-12-20T22:31:26.331Z,4.90
2022-12-20T22:33:54.693Z,4.80
2022-12-20T22:36:22.766Z,4.90
2022-12-20T22:38:54.293Z,4.80
2022-12-20T22:41:26.541Z,4.80
2022-12-20T22:43:54.177Z,4.70
2022-12-20T22:46:21.219Z,4.80
2022-12-20T22:48:48.022Z,4.80
2022-12-20T22:51:18.450Z,4.70
2022-12-20T22:53:45.661Z,4.70
2022-12-20T22:56:12.466Z,4.70
2022-12-20T22:58:39.998Z,4.70
2022-12-20T23:01:10.343Z,4.70
2022-12-20T23:03:37.524Z,4.70
2022-12-20T23:06:05.937Z,4.60
2022-12-20T23:08:35.377Z,4.60
2022-12-20T23:11:21.559Z,4.60
2022-12-20T23:14:07.095Z,4.60
2022-12-20T23:16:33.831Z,4.60
2022-12-20T23:19:02.156Z,4.70
2022-12-20T23:21:47.940Z,4.70
2022-12-20T23:24:15.577Z,4.60
2022-12-20T23:26:42.764Z,4.70
2022-12-20T23:29:10.301Z,4.70
2022-12-20T23:31:37.370Z,4.70
2022-12-20T23:34:04.741Z,4.70
2022-12-20T23:36:33.260Z,4.60
2022-12-20T23:39:00.580Z,4.60
2022-12-20T23:41:27.361Z,4.50
2022-12-20T23:43:54.233Z,4.60
2022-12-20T23:46:24.369Z,4.60
2022-12-20T23:48:52.490Z,4.60
2022-12-20T23:51:20.489Z,4.50
2022-12-20T23:53:47.577Z,4.60
2022-12-20T23:56:19.800Z,4.60
2022-12-20T23:58:51.192Z,4.60
